sensor_id;sensor_type;location;lat;lon;timestamp;P1;durP1;ratioP1;P2;durP2;ratioP2
8714;SDS011;4394;51.208;8.904;2023-08-21T00:01:05;10.27;;;6.80;;
8714;SDS011;4394;51.208;8.904;2023-08-21T00:03:53;11.90;;;6.33;;
8714;SDS011;4394;51.208;8.904;2023-08-21T00:06:42;7.67;;;6.80;;
8714;SDS011;4394;51.208;8.904;2023-08-21T00:09:30;8.30;;;5.97;;
8714;SDS011;4394;51.208;8.904;2023-08-21T00:12:18;7.17;;;6.40;;
8714;SDS011;4394;51.208;8.904;2023-08-21T00:15:06;9.07;;;7.50;;
8714;SDS011;4394;51.208;8.904;2023-08-21T00:17:57;9.70;;;8.70;;
8714;SDS011;4394;51.208;8.904;2023-08-21T00:20:47;9.70;;;8.10;;
8714;SDS011;4394;51.208;8.904;2023-08-21T00:23:35;8.63;;;7.53;;
8714;SDS011;4394;51.208;8.904;2023-08-21T00:26:23;8.33;;;7.20;;
8714;SDS011;4394;51.208;8.904;2023-08-21T00:29:11;8.70;;;7.63;;
8714;SDS011;4394;51.208;8.904;2023-08-21T00:31:59;7.77;;;6.77;;
8714;SDS011;4394;51.208;8.904;2023-08-21T00:34:48;10.97;;;6.83;;
8714;SDS011;4394;51.208;8.904;2023-08-21T00:37:36;9.00;;;6.47;;
8714;SDS011;4394;51.208;8.904;2023-08-21T00:40:24;7.80;;;5.70;;
8714;SDS011;4394;51.208;8.904;2023-08-21T00:43:12;9.33;;;6.20;;
8714;SDS011;4394;51.208;8.904;2023-08-21T00:46:01;6.30;;;5.50;;
8714;SDS011;4394;51.208;8.904;2023-08-21T00:48:49;7.70;;;6.70;;
8714;SDS011;4394;51.208;8.904;2023-08-21T00:51:38;14.67;;;6.80;;
8714;SDS011;4394;51.208;8.904;2023-08-21T00:54:27;9.43;;;6.37;;
8714;SDS011;4394;51.208;8.904;2023-08-21T00:57:16;9.00;;;6.23;;
8714;SDS011;4394;51.208;8.904;2023-08-21T01:00:05;7.87;;;6.67;;
8714;SDS011;4394;51.208;8.904;2023-08-21T01:02:56;7.47;;;6.67;;
8714;SDS011;4394;51.208;8.904;2023-08-21T01:05:44;7.70;;;5.97;;
8714;SDS011;4394;51.208;8.904;2023-08-21T01:08:35;8.03;;;6.33;;
8714;SDS011;4394;51.208;8.904;2023-08-21T01:11:31;7.97;;;6.03;;
8714;SDS011;4394;51.208;8.904;2023-08-21T01:14:27;7.50;;;6.07;;
8714;SDS011;4394;51.208;8.904;2023-08-21T01:17:18;8.37;;;6.10;;
8714;SDS011;4394;51.208;8.904;2023-08-21T01:20:09;7.43;;;6.00;;
8714;SDS011;4394;51.208;8.904;2023-08-21T01:23:02;7.70;;;5.93;;
8714;SDS011;4394;51.208;8.904;2023-08-21T01:25:53;9.07;;;5.60;;
8714;SDS011;4394;51.208;8.904;2023-08-21T01:28:41;7.20;;;6.03;;
8714;SDS011;4394;51.208;8.904;2023-08-21T01:31:30;7.63;;;6.23;;
8714;SDS011;4394;51.208;8.904;2023-08-21T01:34:23;7.83;;;5.63;;
8714;SDS011;4394;51.208;8.904;2023-08-21T01:37:12;6.83;;;6.10;;
8714;SDS011;4394;51.208;8.904;2023-08-21T01:40:01;7.72;;;6.80;;
8714;SDS011;4394;51.208;8.904;2023-08-21T01:42:51;8.67;;;6.40;;
8714;SDS011;4394;51.208;8.904;2023-08-21T01:45:40;7.87;;;6.43;;
8714;SDS011;4394;51.208;8.904;2023-08-21T01:48:28;7.77;;;6.27;;
8714;SDS011;4394;51.208;8.904;2023-08-21T01:51:16;7.10;;;5.80;;
8714;SDS011;4394;51.208;8.904;2023-08-21T01:54:04;8.63;;;6.50;;
8714;SDS011;4394;51.208;8.904;2023-08-21T01:56:52;6.63;;;5.97;;
8714;SDS011;4394;51.208;8.904;2023-08-21T01:59:42;7.80;;;5.57;;
8714;SDS011;4394;51.208;8.904;2023-08-21T02:02:30;8.33;;;6.10;;
8714;SDS011;4394;51.208;8.904;2023-08-21T02:05:18;7.87;;;6.40;;
8714;SDS011;4394;51.208;8.904;2023-08-21T02:08:06;7.00;;;6.30;;
8714;SDS011;4394;51.208;8.904;2023-08-21T02:11:01;6.57;;;5.60;;
8714;SDS011;4394;51.208;8.904;2023-08-21T02:13:49;8.37;;;5.70;;
8714;SDS011;4394;51.208;8.904;2023-08-21T02:16:38;8.20;;;6.00;;
8714;SDS011;4394;51.208;8.904;2023-08-21T02:19:26;7.60;;;5.67;;
8714;SDS011;4394;51.208;8.904;2023-08-21T02:22:14;5.87;;;5.27;;
8714;SDS011;4394;51.208;8.904;2023-08-21T02:25:03;7.72;;;6.30;;
8714;SDS011;4394;51.208;8.904;2023-08-21T02:27:51;7.20;;;5.97;;
8714;SDS011;4394;51.208;8.904;2023-08-21T02:30:39;7.20;;;5.67;;
8714;SDS011;4394;51.208;8.904;2023-08-21T02:33:29;7.87;;;5.67;;
8714;SDS011;4394;51.208;8.904;2023-08-21T02:36:18;7.77;;;6.07;;
8714;SDS011;4394;51.208;8.904;2023-08-21T02:39:06;6.70;;;5.57;;
8714;SDS011;4394;51.208;8.904;2023-08-21T02:41:54;7.20;;;5.40;;
8714;SDS011;4394;51.208;8.904;2023-08-21T02:44:42;7.17;;;5.77;;
8714;SDS011;4394;51.208;8.904;2023-08-21T02:47:30;6.33;;;5.60;;
8714;SDS011;4394;51.208;8.904;2023-08-21T02:50:20;6.23;;;5.43;;
8714;SDS011;4394;51.208;8.904;2023-08-21T02:53:08;7.60;;;4.87;;
8714;SDS011;4394;51.208;8.904;2023-08-21T02:55:56;7.77;;;5.00;;
8714;SDS011;4394;51.208;8.904;2023-08-21T02:58:44;8.83;;;5.47;;
8714;SDS011;4394;51.208;8.904;2023-08-21T03:01:32;6.37;;;5.43;;
8714;SDS011;4394;51.208;8.904;2023-08-21T03:04:21;6.50;;;5.03;;
8714;SDS011;4394;51.208;8.904;2023-08-21T03:07:11;7.60;;;4.27;;
8714;SDS011;4394;51.208;8.904;2023-08-21T03:09:59;5.73;;;4.87;;
8714;SDS011;4394;51.208;8.904;2023-08-21T03:12:48;6.33;;;4.67;;
8714;SDS011;4394;51.208;8.904;2023-08-21T03:15:36;4.87;;;4.27;;
8714;SDS011;4394;51.208;8.904;2023-08-21T03:18:24;7.40;;;4.87;;
8714;SDS011;4394;51.208;8.904;2023-08-21T03:21:18;6.60;;;4.83;;
8714;SDS011;4394;51.208;8.904;2023-08-21T03:24:07;8.47;;;4.57;;
8714;SDS011;4394;51.208;8.904;2023-08-21T03:26:55;7.30;;;4.60;;
8714;SDS011;4394;51.208;8.904;2023-08-21T03:29:43;6.17;;;4.60;;
8714;SDS011;4394;51.208;8.904;2023-08-21T03:32:35;7.73;;;5.07;;
8714;SDS011;4394;51.208;8.904;2023-08-21T03:35:23;6.60;;;4.63;;
8714;SDS011;4394;51.208;8.904;2023-08-21T03:38:11;6.67;;;4.80;;
8714;SDS011;4394;51.208;8.904;2023-08-21T03:41:01;5.50;;;4.60;;
8714;SDS011;4394;51.208;8.904;2023-08-21T03:43:51;7.70;;;4.70;;
8714;SDS011;4394;51.208;8.904;2023-08-21T03:46:39;7.27;;;4.07;;
8714;SDS011;4394;51.208;8.904;2023-08-21T03:49:27;7.53;;;4.82;;
8714;SDS011;4394;51.208;8.904;2023-08-21T03:52:15;7.43;;;4.93;;
8714;SDS011;4394;51.208;8.904;2023-08-21T03:55:03;6.00;;;4.73;;
8714;SDS011;4394;51.208;8.904;2023-08-21T03:57:53;6.30;;;4.90;;
8714;SDS011;4394;51.208;8.904;2023-08-21T04:00:41;8.50;;;5.17;;
8714;SDS011;4394;51.208;8.904;2023-08-21T04:03:30;6.47;;;4.60;;
8714;SDS011;4394;51.208;8.904;2023-08-21T04:06:18;5.90;;;4.60;;
8714;SDS011;4394;51.208;8.904;2023-08-21T04:09:06;7.30;;;4.80;;
8714;SDS011;4394;51.208;8.904;2023-08-21T04:11:54;6.20;;;5.27;;
8714;SDS011;4394;51.208;8.904;2023-08-21T04:14:43;6.23;;;4.70;;
8714;SDS011;4394;51.208;8.904;2023-08-21T04:17:32;7.97;;;5.30;;
8714;SDS011;4394;51.208;8.904;2023-08-21T04:20:20;6.13;;;4.83;;
8714;SDS011;4394;51.208;8.904;2023-08-21T04:23:08;6.83;;;4.67;;
8714;SDS011;4394;51.208;8.904;2023-08-21T04:25:59;6.33;;;5.03;;
8714;SDS011;4394;51.208;8.904;2023-08-21T04:28:48;6.43;;;4.60;;
8714;SDS011;4394;51.208;8.904;2023-08-21T04:31:37;6.57;;;5.40;;
8714;SDS011;4394;51.208;8.904;2023-08-21T04:34:26;7.40;;;5.40;;
8714;SDS011;4394;51.208;8.904;2023-08-21T04:37:14;6.93;;;5.30;;
8714;SDS011;4394;51.208;8.904;2023-08-21T04:40:02;7.13;;;5.40;;
8714;SDS011;4394;51.208;8.904;2023-08-21T04:42:50;6.37;;;5.57;;
8714;SDS011;4394;51.208;8.904;2023-08-21T04:45:38;6.60;;;5.50;;
8714;SDS011;4394;51.208;8.904;2023-08-21T04:48:35;7.40;;;5.50;;
8714;SDS011;4394;51.208;8.904;2023-08-21T04:51:23;6.90;;;5.70;;
8714;SDS011;4394;51.208;8.904;2023-08-21T04:54:12;9.83;;;5.90;;
8714;SDS011;4394;51.208;8.904;2023-08-21T04:57:00;8.20;;;5.27;;
8714;SDS011;4394;51.208;8.904;2023-08-21T04:59:48;9.60;;;5.53;;
8714;SDS011;4394;51.208;8.904;2023-08-21T05:02:36;8.33;;;5.30;;
8714;SDS011;4394;51.208;8.904;2023-08-21T05:05:26;6.73;;;5.40;;
8714;SDS011;4394;51.208;8.904;2023-08-21T05:08:14;6.37;;;5.20;;
8714;SDS011;4394;51.208;8.904;2023-08-21T05:11:02;7.30;;;4.93;;
8714;SDS011;4394;51.208;8.904;2023-08-21T05:13:50;5.23;;;4.73;;
8714;SDS011;4394;51.208;8.904;2023-08-21T05:16:38;6.37;;;5.13;;
8714;SDS011;4394;51.208;8.904;2023-08-21T05:19:26;7.93;;;5.70;;
8714;SDS011;4394;51.208;8.904;2023-08-21T05:22:16;6.37;;;4.53;;
8714;SDS011;4394;51.208;8.904;2023-08-21T05:25:04;8.27;;;5.37;;
8714;SDS011;4394;51.208;8.904;2023-08-21T05:27:53;9.30;;;5.40;;
8714;SDS011;4394;51.208;8.904;2023-08-21T05:30:41;8.63;;;5.90;;
8714;SDS011;4394;51.208;8.904;2023-08-21T05:33:29;6.93;;;5.53;;
8714;SDS011;4394;51.208;8.904;2023-08-21T05:36:17;9.17;;;5.93;;
8714;SDS011;4394;51.208;8.904;2023-08-21T05:39:07;10.47;;;5.53;;
8714;SDS011;4394;51.208;8.904;2023-08-21T05:41:55;7.10;;;5.00;;
8714;SDS011;4394;51.208;8.904;2023-08-21T05:44:45;8.83;;;5.30;;
8714;SDS011;4394;51.208;8.904;2023-08-21T05:47:33;7.23;;;5.67;;
8714;SDS011;4394;51.208;8.904;2023-08-21T05:50:21;7.40;;;5.50;;
8714;SDS011;4394;51.208;8.904;2023-08-21T05:53:09;7.03;;;5.30;;
8714;SDS011;4394;51.208;8.904;2023-08-21T05:55:58;6.03;;;5.13;;
8714;SDS011;4394;51.208;8.904;2023-08-21T05:58:47;7.10;;;5.77;;
8714;SDS011;4394;51.208;8.904;2023-08-21T06:01:35;9.03;;;5.67;;
8714;SDS011;4394;51.208;8.904;2023-08-21T06:04:23;8.60;;;5.83;;
8714;SDS011;4394;51.208;8.904;2023-08-21T06:07:11;8.03;;;5.40;;
8714;SDS011;4394;51.208;8.904;2023-08-21T06:09:59;6.63;;;5.07;;
8714;SDS011;4394;51.208;8.904;2023-08-21T06:12:49;6.37;;;5.53;;
8714;SDS011;4394;51.208;8.904;2023-08-21T06:15:37;7.90;;;5.27;;
8714;SDS011;4394;51.208;8.904;2023-08-21T06:18:25;8.30;;;6.10;;
8714;SDS011;4394;51.208;8.904;2023-08-21T06:21:14;5.97;;;5.37;;
8714;SDS011;4394;51.208;8.904;2023-08-21T06:24:02;8.47;;;5.60;;
8714;SDS011;4394;51.208;8.904;2023-08-21T06:26:51;7.63;;;5.40;;
8714;SDS011;4394;51.208;8.904;2023-08-21T06:29:40;8.00;;;5.63;;
8714;SDS011;4394;51.208;8.904;2023-08-21T06:32:28;6.97;;;5.33;;
8714;SDS011;4394;51.208;8.904;2023-08-21T06:35:16;7.87;;;6.20;;
8714;SDS011;4394;51.208;8.904;2023-08-21T06:38:05;7.27;;;5.57;;
8714;SDS011;4394;51.208;8.904;2023-08-21T06:40:53;7.63;;;5.57;;
8714;SDS011;4394;51.208;8.904;2023-08-21T06:43:41;7.93;;;5.30;;
8714;SDS011;4394;51.208;8.904;2023-08-21T06:46:32;7.80;;;5.87;;
8714;SDS011;4394;51.208;8.904;2023-08-21T06:49:20;8.17;;;5.50;;
8714;SDS011;4394;51.208;8.904;2023-08-21T06:52:09;6.43;;;5.80;;
8714;SDS011;4394;51.208;8.904;2023-08-21T06:54:57;8.17;;;5.53;;
8714;SDS011;4394;51.208;8.904;2023-08-21T06:57:45;6.80;;;5.60;;
8714;SDS011;4394;51.208;8.904;2023-08-21T07:00:33;7.00;;;5.83;;
8714;SDS011;4394;51.208;8.904;2023-08-21T07:03:23;7.87;;;5.83;;
8714;SDS011;4394;51.208;8.904;2023-08-21T07:06:11;10.13;;;6.20;;
8714;SDS011;4394;51.208;8.904;2023-08-21T07:08:59;6.60;;;5.73;;
8714;SDS011;4394;51.208;8.904;2023-08-21T07:11:47;6.97;;;5.63;;
8714;SDS011;4394;51.208;8.904;2023-08-21T07:14:35;6.30;;;5.70;;
8714;SDS011;4394;51.208;8.904;2023-08-21T07:17:23;8.33;;;5.73;;
8714;SDS011;4394;51.208;8.904;2023-08-21T07:20:14;9.80;;;7.00;;
8714;SDS011;4394;51.208;8.904;2023-08-21T07:23:02;8.23;;;5.80;;
8714;SDS011;4394;51.208;8.904;2023-08-21T07:25:50;10.07;;;5.60;;
8714;SDS011;4394;51.208;8.904;2023-08-21T07:28:38;6.87;;;5.50;;
8714;SDS011;4394;51.208;8.904;2023-08-21T07:31:26;7.00;;;5.93;;
8714;SDS011;4394;51.208;8.904;2023-08-21T07:34:15;7.73;;;5.23;;
8714;SDS011;4394;51.208;8.904;2023-08-21T07:37:04;6.77;;;5.73;;
8714;SDS011;4394;51.208;8.904;2023-08-21T07:39:54;9.70;;;5.47;;
8714;SDS011;4394;51.208;8.904;2023-08-21T07:42:44;7.50;;;6.00;;
8714;SDS011;4394;51.208;8.904;2023-08-21T07:45:32;5.83;;;5.23;;
8714;SDS011;4394;51.208;8.904;2023-08-21T07:48:20;7.30;;;5.13;;
8714;SDS011;4394;51.208;8.904;2023-08-21T07:51:08;7.50;;;5.13;;
8714;SDS011;4394;51.208;8.904;2023-08-21T07:53:58;8.27;;;5.97;;
8714;SDS011;4394;51.208;8.904;2023-08-21T07:56:46;6.93;;;6.00;;
8714;SDS011;4394;51.208;8.904;2023-08-21T07:59:34;11.63;;;6.20;;
8714;SDS011;4394;51.208;8.904;2023-08-21T08:02:22;7.53;;;6.17;;
8714;SDS011;4394;51.208;8.904;2023-08-21T08:05:11;7.50;;;6.20;;
8714;SDS011;4394;51.208;8.904;2023-08-21T08:08:00;6.77;;;6.07;;
8714;SDS011;4394;51.208;8.904;2023-08-21T08:10:49;7.27;;;6.27;;
8714;SDS011;4394;51.208;8.904;2023-08-21T08:13:37;7.10;;;6.40;;
8714;SDS011;4394;51.208;8.904;2023-08-21T08:16:25;6.20;;;5.60;;
8714;SDS011;4394;51.208;8.904;2023-08-21T08:19:14;7.00;;;5.70;;
8714;SDS011;4394;51.208;8.904;2023-08-21T08:22:02;8.47;;;6.27;;
8714;SDS011;4394;51.208;8.904;2023-08-21T08:24:50;6.83;;;5.53;;
8714;SDS011;4394;51.208;8.904;2023-08-21T08:27:39;8.17;;;6.30;;
8714;SDS011;4394;51.208;8.904;2023-08-21T08:30:28;9.13;;;6.13;;
8714;SDS011;4394;51.208;8.904;2023-08-21T08:33:16;6.40;;;5.80;;
8714;SDS011;4394;51.208;8.904;2023-08-21T08:36:04;7.60;;;5.60;;
8714;SDS011;4394;51.208;8.904;2023-08-21T08:38:52;7.93;;;5.97;;
8714;SDS011;4394;51.208;8.904;2023-08-21T08:41:43;8.20;;;6.13;;
8714;SDS011;4394;51.208;8.904;2023-08-21T08:44:37;6.97;;;5.60;;
8714;SDS011;4394;51.208;8.904;2023-08-21T08:47:27;6.80;;;6.03;;
8714;SDS011;4394;51.208;8.904;2023-08-21T08:50:16;6.70;;;6.03;;
8714;SDS011;4394;51.208;8.904;2023-08-21T08:53:05;6.60;;;5.80;;
8714;SDS011;4394;51.208;8.904;2023-08-21T08:56:02;11.50;;;6.20;;
8714;SDS011;4394;51.208;8.904;2023-08-21T08:58:52;9.73;;;7.80;;
8714;SDS011;4394;51.208;8.904;2023-08-21T09:01:41;7.20;;;6.00;;
8714;SDS011;4394;51.208;8.904;2023-08-21T09:04:30;7.87;;;6.37;;
8714;SDS011;4394;51.208;8.904;2023-08-21T09:07:18;7.18;;;6.28;;
8714;SDS011;4394;51.208;8.904;2023-08-21T09:10:12;9.03;;;6.90;;
8714;SDS011;4394;51.208;8.904;2023-08-21T09:13:03;7.20;;;6.17;;
8714;SDS011;4394;51.208;8.904;2023-08-21T09:15:56;8.80;;;6.30;;
8714;SDS011;4394;51.208;8.904;2023-08-21T09:18:50;8.07;;;6.30;;
8714;SDS011;4394;51.208;8.904;2023-08-21T09:21:40;7.90;;;6.20;;
8714;SDS011;4394;51.208;8.904;2023-08-21T09:24:28;8.60;;;7.70;;
8714;SDS011;4394;51.208;8.904;2023-08-21T09:27:16;7.20;;;6.50;;
8714;SDS011;4394;51.208;8.904;2023-08-21T09:30:04;7.57;;;6.18;;
8714;SDS011;4394;51.208;8.904;2023-08-21T09:32:54;6.97;;;6.38;;
8714;SDS011;4394;51.208;8.904;2023-08-21T09:35:45;7.18;;;6.47;;
8714;SDS011;4394;51.208;8.904;2023-08-21T09:38:33;7.85;;;6.22;;
8714;SDS011;4394;51.208;8.904;2023-08-21T09:41:21;8.48;;;6.25;;
8714;SDS011;4394;51.208;8.904;2023-08-21T09:44:10;7.05;;;6.05;;
8714;SDS011;4394;51.208;8.904;2023-08-21T09:46:59;9.43;;;6.80;;
8714;SDS011;4394;51.208;8.904;2023-08-21T09:49:47;9.05;;;6.68;;
8714;SDS011;4394;51.208;8.904;2023-08-21T09:52:37;8.45;;;6.35;;
8714;SDS011;4394;51.208;8.904;2023-08-21T09:55:25;7.10;;;6.40;;
8714;SDS011;4394;51.208;8.904;2023-08-21T09:58:16;7.78;;;6.03;;
8714;SDS011;4394;51.208;8.904;2023-08-21T10:01:06;7.13;;;5.32;;
8714;SDS011;4394;51.208;8.904;2023-08-21T10:03:58;6.60;;;5.45;;
8714;SDS011;4394;51.208;8.904;2023-08-21T10:06:49;6.43;;;5.57;;
8714;SDS011;4394;51.208;8.904;2023-08-21T10:09:41;8.25;;;6.13;;
8714;SDS011;4394;51.208;8.904;2023-08-21T10:12:30;6.80;;;6.10;;
8714;SDS011;4394;51.208;8.904;2023-08-21T10:15:18;6.25;;;5.50;;
8714;SDS011;4394;51.208;8.904;2023-08-21T10:18:19;5.55;;;5.05;;
8714;SDS011;4394;51.208;8.904;2023-08-21T10:21:10;6.88;;;5.22;;
8714;SDS011;4394;51.208;8.904;2023-08-21T10:23:59;8.10;;;5.30;;
8714;SDS011;4394;51.208;8.904;2023-08-21T10:26:49;5.30;;;4.80;;
8714;SDS011;4394;51.208;8.904;2023-08-21T10:29:38;5.93;;;4.72;;
8714;SDS011;4394;51.208;8.904;2023-08-21T10:32:26;7.95;;;5.25;;
8714;SDS011;4394;51.208;8.904;2023-08-21T10:35:14;5.22;;;4.72;;
8714;SDS011;4394;51.208;8.904;2023-08-21T10:38:07;5.15;;;4.65;;
8714;SDS011;4394;51.208;8.904;2023-08-21T10:41:06;5.78;;;5.00;;
8714;SDS011;4394;51.208;8.904;2023-08-21T10:43:56;7.20;;;5.00;;
8714;SDS011;4394;51.208;8.904;2023-08-21T10:46:50;8.23;;;4.78;;
8714;SDS011;4394;51.208;8.904;2023-08-21T10:49:38;6.70;;;5.22;;
8714;SDS011;4394;51.208;8.904;2023-08-21T10:52:27;6.53;;;4.80;;
8714;SDS011;4394;51.208;8.904;2023-08-21T10:55:16;5.35;;;4.70;;
8714;SDS011;4394;51.208;8.904;2023-08-21T10:58:05;7.90;;;4.70;;
8714;SDS011;4394;51.208;8.904;2023-08-21T11:00:59;8.00;;;5.13;;
8714;SDS011;4394;51.208;8.904;2023-08-21T11:03:48;5.30;;;4.78;;
8714;SDS011;4394;51.208;8.904;2023-08-21T11:06:38;5.85;;;5.22;;
8714;SDS011;4394;51.208;8.904;2023-08-21T11:09:26;5.78;;;5.25;;
8714;SDS011;4394;51.208;8.904;2023-08-21T11:12:15;6.53;;;4.95;;
8714;SDS011;4394;51.208;8.904;2023-08-21T11:15:04;6.07;;;4.80;;
8714;SDS011;4394;51.208;8.904;2023-08-21T11:17:55;7.65;;;4.57;;
8714;SDS011;4394;51.208;8.904;2023-08-21T11:20:46;7.47;;;4.97;;
8714;SDS011;4394;51.208;8.904;2023-08-21T11:23:34;9.60;;;5.43;;
8714;SDS011;4394;51.208;8.904;2023-08-21T11:26:24;7.05;;;5.22;;
8714;SDS011;4394;51.208;8.904;2023-08-21T11:29:12;6.72;;;5.18;;
8714;SDS011;4394;51.208;8.904;2023-08-21T11:32:00;6.32;;;5.20;;
8714;SDS011;4394;51.208;8.904;2023-08-21T11:34:52;5.95;;;5.32;;
8714;SDS011;4394;51.208;8.904;2023-08-21T11:37:43;6.57;;;5.10;;
8714;SDS011;4394;51.208;8.904;2023-08-21T11:40:34;7.75;;;5.75;;
8714;SDS011;4394;51.208;8.904;2023-08-21T11:43:22;9.18;;;6.15;;
8714;SDS011;4394;51.208;8.904;2023-08-21T11:46:20;50.13;;;13.40;;
8714;SDS011;4394;51.208;8.904;2023-08-21T11:49:08;26.02;;;9.43;;
8714;SDS011;4394;51.208;8.904;2023-08-21T11:51:58;26.92;;;10.00;;
8714;SDS011;4394;51.208;8.904;2023-08-21T11:54:47;7.70;;;6.18;;
8714;SDS011;4394;51.208;8.904;2023-08-21T11:57:45;6.68;;;5.70;;
8714;SDS011;4394;51.208;8.904;2023-08-21T12:00:34;7.53;;;5.53;;
8714;SDS011;4394;51.208;8.904;2023-08-21T12:03:23;6.28;;;5.32;;
8714;SDS011;4394;51.208;8.904;2023-08-21T12:06:12;6.70;;;5.85;;
8714;SDS011;4394;51.208;8.904;2023-08-21T12:09:02;6.18;;;5.47;;
8714;SDS011;4394;51.208;8.904;2023-08-21T12:11:50;5.82;;;5.20;;
8714;SDS011;4394;51.208;8.904;2023-08-21T12:14:38;7.65;;;4.97;;
8714;SDS011;4394;51.208;8.904;2023-08-21T12:17:26;10.40;;;5.18;;
8714;SDS011;4394;51.208;8.904;2023-08-21T12:20:15;5.30;;;4.72;;
8714;SDS011;4394;51.208;8.904;2023-08-21T12:23:03;6.05;;;5.38;;
8714;SDS011;4394;51.208;8.904;2023-08-21T12:25:52;6.53;;;5.28;;
8714;SDS011;4394;51.208;8.904;2023-08-21T12:28:40;6.85;;;4.72;;
8714;SDS011;4394;51.208;8.904;2023-08-21T12:31:29;6.15;;;5.10;;
8714;SDS011;4394;51.208;8.904;2023-08-21T12:34:17;6.93;;;4.85;;
8714;SDS011;4394;51.208;8.904;2023-08-21T12:37:05;7.32;;;5.00;;
8714;SDS011;4394;51.208;8.904;2023-08-21T12:39:53;6.65;;;5.10;;
8714;SDS011;4394;51.208;8.904;2023-08-21T12:42:43;5.70;;;5.00;;
8714;SDS011;4394;51.208;8.904;2023-08-21T12:45:31;6.45;;;5.15;;
8714;SDS011;4394;51.208;8.904;2023-08-21T12:48:19;4.88;;;4.40;;
8714;SDS011;4394;51.208;8.904;2023-08-21T12:51:07;5.20;;;4.65;;
8714;SDS011;4394;51.208;8.904;2023-08-21T12:53:55;7.05;;;5.32;;
8714;SDS011;4394;51.208;8.904;2023-08-21T12:56:43;6.20;;;4.80;;
8714;SDS011;4394;51.208;8.904;2023-08-21T12:59:33;5.35;;;4.85;;
8714;SDS011;4394;51.208;8.904;2023-08-21T13:02:21;5.55;;;4.97;;
8714;SDS011;4394;51.208;8.904;2023-08-21T13:05:10;8.20;;;4.78;;
8714;SDS011;4394;51.208;8.904;2023-08-21T13:07:58;6.50;;;4.95;;
8714;SDS011;4394;51.208;8.904;2023-08-21T13:10:46;6.80;;;4.55;;
8714;SDS011;4394;51.208;8.904;2023-08-21T13:13:34;5.15;;;4.70;;
8714;SDS011;4394;51.208;8.904;2023-08-21T13:16:24;5.80;;;4.65;;
8714;SDS011;4394;51.208;8.904;2023-08-21T13:19:12;6.88;;;5.25;;
8714;SDS011;4394;51.208;8.904;2023-08-21T13:22:00;6.05;;;5.45;;
8714;SDS011;4394;51.208;8.904;2023-08-21T13:24:48;5.88;;;5.15;;
8714;SDS011;4394;51.208;8.904;2023-08-21T13:27:36;5.97;;;5.47;;
8714;SDS011;4394;51.208;8.904;2023-08-21T13:30:25;5.63;;;5.13;;
8714;SDS011;4394;51.208;8.904;2023-08-21T13:33:15;6.57;;;5.13;;
8714;SDS011;4394;51.208;8.904;2023-08-21T13:36:04;6.72;;;5.63;;
8714;SDS011;4394;51.208;8.904;2023-08-21T13:38:52;5.95;;;5.40;;
8714;SDS011;4394;51.208;8.904;2023-08-21T13:41:40;7.15;;;5.20;;
8714;SDS011;4394;51.208;8.904;2023-08-21T13:44:28;5.82;;;5.32;;
8714;SDS011;4394;51.208;8.904;2023-08-21T13:47:19;5.72;;;5.10;;
8714;SDS011;4394;51.208;8.904;2023-08-21T13:50:09;6.28;;;5.57;;
8714;SDS011;4394;51.208;8.904;2023-08-21T13:52:58;6.72;;;5.50;;
8714;SDS011;4394;51.208;8.904;2023-08-21T13:55:46;9.25;;;5.97;;
8714;SDS011;4394;51.208;8.904;2023-08-21T13:58:34;8.05;;;5.13;;
8714;SDS011;4394;51.208;8.904;2023-08-21T14:01:22;7.50;;;5.63;;
8714;SDS011;4394;51.208;8.904;2023-08-21T14:04:10;9.15;;;5.25;;
8714;SDS011;4394;51.208;8.904;2023-08-21T14:07:00;6.53;;;5.45;;
8714;SDS011;4394;51.208;8.904;2023-08-21T14:09:48;6.82;;;5.20;;
8714;SDS011;4394;51.208;8.904;2023-08-21T14:12:36;6.03;;;5.35;;
8714;SDS011;4394;51.208;8.904;2023-08-21T14:15:28;5.65;;;5.03;;
8714;SDS011;4394;51.208;8.904;2023-08-21T14:18:16;6.03;;;5.10;;
8714;SDS011;4394;51.208;8.904;2023-08-21T14:21:04;7.75;;;5.30;;
8714;SDS011;4394;51.208;8.904;2023-08-21T14:23:53;6.03;;;5.38;;
8714;SDS011;4394;51.208;8.904;2023-08-21T14:26:41;5.50;;;5.00;;
8714;SDS011;4394;51.208;8.904;2023-08-21T14:29:30;5.68;;;5.10;;
8714;SDS011;4394;51.208;8.904;2023-08-21T14:32:18;6.07;;;5.00;;
8714;SDS011;4394;51.208;8.904;2023-08-21T14:35:06;6.38;;;5.00;;
8714;SDS011;4394;51.208;8.904;2023-08-21T14:37:55;6.50;;;5.80;;
8714;SDS011;4394;51.208;8.904;2023-08-21T14:40:44;7.82;;;5.30;;
8714;SDS011;4394;51.208;8.904;2023-08-21T14:43:32;20.52;;;10.52;;
8714;SDS011;4394;51.208;8.904;2023-08-21T14:46:20;12.52;;;7.97;;
8714;SDS011;4394;51.208;8.904;2023-08-21T14:49:28;18.20;;;9.38;;
8714;SDS011;4394;51.208;8.904;2023-08-21T14:52:16;25.42;;;12.55;;
8714;SDS011;4394;51.208;8.904;2023-08-21T14:55:04;9.45;;;6.30;;
8714;SDS011;4394;51.208;8.904;2023-08-21T14:57:55;14.05;;;8.23;;
8714;SDS011;4394;51.208;8.904;2023-08-21T15:00:43;8.77;;;5.25;;
8714;SDS011;4394;51.208;8.904;2023-08-21T15:03:31;6.15;;;5.32;;
8714;SDS011;4394;51.208;8.904;2023-08-21T15:06:21;5.60;;;5.00;;
8714;SDS011;4394;51.208;8.904;2023-08-21T15:09:10;7.05;;;5.43;;
8714;SDS011;4394;51.208;8.904;2023-08-21T15:12:00;6.63;;;5.03;;
8714;SDS011;4394;51.208;8.904;2023-08-21T15:14:49;5.50;;;5.00;;
8714;SDS011;4394;51.208;8.904;2023-08-21T15:17:37;6.50;;;5.03;;
8714;SDS011;4394;51.208;8.904;2023-08-21T15:20:26;5.60;;;5.10;;
8714;SDS011;4394;51.208;8.904;2023-08-21T15:23:14;6.20;;;5.70;;
8714;SDS011;4394;51.208;8.904;2023-08-21T15:26:02;6.30;;;5.43;;
8714;SDS011;4394;51.208;8.904;2023-08-21T15:28:50;5.88;;;5.30;;
8714;SDS011;4394;51.208;8.904;2023-08-21T15:31:40;9.10;;;5.47;;
8714;SDS011;4394;51.208;8.904;2023-08-21T15:34:28;5.90;;;5.32;;
8714;SDS011;4394;51.208;8.904;2023-08-21T15:37:16;6.13;;;5.53;;
8714;SDS011;4394;51.208;8.904;2023-08-21T15:40:05;6.82;;;6.05;;
8714;SDS011;4394;51.208;8.904;2023-08-21T15:42:54;6.63;;;5.10;;
8714;SDS011;4394;51.208;8.904;2023-08-21T15:45:42;7.00;;;5.13;;
8714;SDS011;4394;51.208;8.904;2023-08-21T15:48:31;5.75;;;5.15;;
8714;SDS011;4394;51.208;8.904;2023-08-21T15:51:20;7.57;;;5.75;;
8714;SDS011;4394;51.208;8.904;2023-08-21T15:54:08;6.30;;;5.70;;
8714;SDS011;4394;51.208;8.904;2023-08-21T15:56:56;7.05;;;5.57;;
8714;SDS011;4394;51.208;8.904;2023-08-21T15:59:44;6.88;;;5.10;;
8714;SDS011;4394;51.208;8.904;2023-08-21T16:02:33;6.97;;;5.85;;
8714;SDS011;4394;51.208;8.904;2023-08-21T16:05:23;6.95;;;6.18;;
8714;SDS011;4394;51.208;8.904;2023-08-21T16:08:11;5.63;;;5.13;;
8714;SDS011;4394;51.208;8.904;2023-08-21T16:10:59;5.55;;;4.93;;
8714;SDS011;4394;51.208;8.904;2023-08-21T16:13:47;7.30;;;5.50;;
8714;SDS011;4394;51.208;8.904;2023-08-21T16:16:36;6.80;;;5.70;;
8714;SDS011;4394;51.208;8.904;2023-08-21T16:19:26;7.05;;;5.30;;
8714;SDS011;4394;51.208;8.904;2023-08-21T16:22:16;6.05;;;5.50;;
8714;SDS011;4394;51.208;8.904;2023-08-21T16:25:04;6.25;;;5.65;;
8714;SDS011;4394;51.208;8.904;2023-08-21T16:27:53;7.10;;;5.35;;
8714;SDS011;4394;51.208;8.904;2023-08-21T16:30:41;6.50;;;5.40;;
8714;SDS011;4394;51.208;8.904;2023-08-21T16:33:29;6.43;;;5.68;;
8714;SDS011;4394;51.208;8.904;2023-08-21T16:36:17;5.82;;;5.30;;
8714;SDS011;4394;51.208;8.904;2023-08-21T16:39:06;6.63;;;5.53;;
8714;SDS011;4394;51.208;8.904;2023-08-21T16:41:55;6.90;;;5.70;;
8714;SDS011;4394;51.208;8.904;2023-08-21T16:44:43;5.50;;;5.00;;
8714;SDS011;4394;51.208;8.904;2023-08-21T16:47:31;5.82;;;5.32;;
8714;SDS011;4394;51.208;8.904;2023-08-21T16:50:19;6.47;;;5.88;;
8714;SDS011;4394;51.208;8.904;2023-08-21T16:53:07;7.13;;;5.38;;
8714;SDS011;4394;51.208;8.904;2023-08-21T16:56:09;6.35;;;5.28;;
8714;SDS011;4394;51.208;8.904;2023-08-21T16:59:00;6.20;;;5.60;;
8714;SDS011;4394;51.208;8.904;2023-08-21T17:01:48;6.18;;;5.47;;
8714;SDS011;4394;51.208;8.904;2023-08-21T17:04:36;5.55;;;5.05;;
8714;SDS011;4394;51.208;8.904;2023-08-21T17:07:25;5.88;;;5.38;;
8714;SDS011;4394;51.208;8.904;2023-08-21T17:10:13;6.13;;;5.50;;
8714;SDS011;4394;51.208;8.904;2023-08-21T17:13:03;6.28;;;5.57;;
8714;SDS011;4394;51.208;8.904;2023-08-21T17:15:51;5.90;;;4.75;;
8714;SDS011;4394;51.208;8.904;2023-08-21T17:18:41;6.07;;;5.47;;
8714;SDS011;4394;51.208;8.904;2023-08-21T17:21:30;10.02;;;5.18;;
8714;SDS011;4394;51.208;8.904;2023-08-21T17:24:18;7.75;;;4.85;;
8714;SDS011;4394;51.208;8.904;2023-08-21T17:27:06;6.25;;;5.05;;
8714;SDS011;4394;51.208;8.904;2023-08-21T17:29:56;5.03;;;4.53;;